Denali National Park, AK

3:04 AM AKDT on October 23, 2014 (GMT -0800)
RAWS STAMPEDE AK US | Change Station
CLOSE
Current Station
Personal Weather Station
Location: Denali National Park, AK
Elevation: 1799 ft
Nearby Weather Stations

Elev 1799 ft 63.75 °N, 150.33 °W | Updated 30 minutes ago

Mostly Cloudy
Mostly Cloudy
23 °F
Feels Like 23 °F
N
0
Wind Variable Wind from North
Gusts 1.0 mph

Today
High -- | Low -- °F
--% Chance of Precip.
Yesterday
High -- | Low -- °F
Precip. -- in
9:16 AM 6:17 PM
Waning Crescent, 0% visible
Pressure 29.77 in
Visibility 10.0 miles
Clouds
Windchill 23 °F
Dew Point 23 °F
Humidity 100%
Rainfall 0.00 in
Snow Depth Not available.
UV Not available.
Pollen Not available.
Air Quality Not available.
Flu Activity Sporadic
METAR PAMH 231056Z AUTO 00000KT 10SM M03/M05 A2977 RMK AO1

More Conditions Fewer Conditions

Pressure 29.77 in
Visibility 10.0 miles
Clouds
Windchill 23 °F
Dew Point 23 °F
Humidity 100%
Rainfall 0.00 in
Snow Depth Not available.
UV Not available.
Pollen Not available.
Air Quality Not available.
Flu Activity Sporadic
METAR PAMH 231056Z AUTO 00000KT 10SM M03/M05 A2977 RMK AO1

More Conditions Fewer Conditions

10-Day Weather Forecast

Almanac

Astronomy

Oct. 23, 2014 Rise Set
Actual Time 9:16 AM AKDT 6:17 PM AKDT
Civil Twilight 8:27 AM AKDT 7:07 PM AKDT
Nautical Twilight 7:32 AM AKDT 8:01 PM AKDT
Astronomical Twilight 6:38 AM AKDT 8:55 PM AKDT
Moon 9:04 AM AKDT 6:22 PM AKDT
Length of Visible Light 10h 39m
Length of Day
9h 00m
Tomorrow will be 6m 19s shorter.
Waning Crescent, 0% of the Moon is Illuminated
Today
Waning Crescent
Oct 23
New
Oct 30
First Quarter
Nov 6
Full
Nov 14
Last Quarter

Today's Extremes

State Highs State Lows

Community

WunderPhotos

Upload Photos

1,764,204 photos uploaded!

Nearby

Snow Depth

Station Depth Elevation
Susitna Valley High 0 in 375 ft
Point Mackenzie 1 in 200 ft
Little Chena Ridge 5 in 2000 ft
Munson Ridge 11 in 3100 ft
Granite Creek 6 in 1240 ft

Earthquake Activity

City Distance Mag. Time & Date
No recent earthquake activity has been reported nearby.
Minimum magnitude displayed is 2.5.

Coastal Water Temperatures

Place Temperature
No Stations Reporting

Nearby Weather Stations